sensor_id;sensor_type;location;lat;lon;timestamp;P1;durP1;ratioP1;P2;durP2;ratioP2
77573;SDS011;66710;48.868;9.080;2023-04-25T00:00:25;4.60;;;2.20;;
77573;SDS011;66710;48.868;9.080;2023-04-25T00:02:51;3.78;;;2.30;;
77573;SDS011;66710;48.868;9.080;2023-04-25T00:05:16;4.13;;;2.40;;
77573;SDS011;66710;48.868;9.080;2023-04-25T00:07:42;4.40;;;2.63;;
77573;SDS011;66710;48.868;9.080;2023-04-25T00:10:08;5.07;;;3.00;;
77573;SDS011;66710;48.868;9.080;2023-04-25T00:12:34;4.82;;;2.88;;
77573;SDS011;66710;48.868;9.080;2023-04-25T00:15:00;4.60;;;2.63;;
77573;SDS011;66710;48.868;9.080;2023-04-25T00:17:26;4.53;;;2.80;;
77573;SDS011;66710;48.868;9.080;2023-04-25T00:19:52;6.38;;;2.97;;
77573;SDS011;66710;48.868;9.080;2023-04-25T00:22:17;3.95;;;2.45;;
77573;SDS011;66710;48.868;9.080;2023-04-25T00:24:43;5.80;;;2.40;;
77573;SDS011;66710;48.868;9.080;2023-04-25T00:27:08;4.15;;;2.45;;
77573;SDS011;66710;48.868;9.080;2023-04-25T00:29:33;4.10;;;2.40;;
77573;SDS011;66710;48.868;9.080;2023-04-25T00:31:59;4.13;;;2.50;;
77573;SDS011;66710;48.868;9.080;2023-04-25T00:34:25;2.80;;;1.65;;
77573;SDS011;66710;48.868;9.080;2023-04-25T00:36:50;6.03;;;2.60;;
77573;SDS011;66710;48.868;9.080;2023-04-25T00:39:16;4.45;;;2.50;;
77573;SDS011;66710;48.868;9.080;2023-04-25T00:41:41;4.60;;;2.45;;
77573;SDS011;66710;48.868;9.080;2023-04-25T00:44:08;4.45;;;2.40;;
77573;SDS011;66710;48.868;9.080;2023-04-25T00:46:36;3.75;;;2.22;;
77573;SDS011;66710;48.868;9.080;2023-04-25T00:49:01;5.18;;;2.90;;
77573;SDS011;66710;48.868;9.080;2023-04-25T00:51:27;4.80;;;2.78;;
77573;SDS011;66710;48.868;9.080;2023-04-25T00:53:52;4.25;;;2.65;;
77573;SDS011;66710;48.868;9.080;2023-04-25T00:56:18;5.30;;;2.42;;
77573;SDS011;66710;48.868;9.080;2023-04-25T00:58:44;4.50;;;3.05;;
77573;SDS011;66710;48.868;9.080;2023-04-25T01:01:10;4.28;;;2.53;;
77573;SDS011;66710;48.868;9.080;2023-04-25T01:03:38;4.38;;;2.78;;
77573;SDS011;66710;48.868;9.080;2023-04-25T01:06:07;5.00;;;2.53;;
77573;SDS011;66710;48.868;9.080;2023-04-25T01:08:34;5.28;;;2.47;;
77573;SDS011;66710;48.868;9.080;2023-04-25T01:11:00;5.30;;;2.42;;
77573;SDS011;66710;48.868;9.080;2023-04-25T01:13:25;4.68;;;2.70;;
77573;SDS011;66710;48.868;9.080;2023-04-25T01:15:51;5.20;;;2.40;;
77573;SDS011;66710;48.868;9.080;2023-04-25T01:18:16;3.88;;;2.40;;
77573;SDS011;66710;48.868;9.080;2023-04-25T01:20:43;7.25;;;2.88;;
77573;SDS011;66710;48.868;9.080;2023-04-25T01:23:09;4.60;;;2.42;;
77573;SDS011;66710;48.868;9.080;2023-04-25T01:25:35;4.00;;;2.45;;
77573;SDS011;66710;48.868;9.080;2023-04-25T01:28:01;4.78;;;2.28;;
77573;SDS011;66710;48.868;9.080;2023-04-25T01:30:26;4.13;;;2.22;;
77573;SDS011;66710;48.868;9.080;2023-04-25T01:32:53;6.13;;;2.70;;
77573;SDS011;66710;48.868;9.080;2023-04-25T01:35:20;4.10;;;2.33;;
77573;SDS011;66710;48.868;9.080;2023-04-25T01:37:45;5.70;;;2.33;;
77573;SDS011;66710;48.868;9.080;2023-04-25T01:40:11;4.60;;;2.47;;
77573;SDS011;66710;48.868;9.080;2023-04-25T01:42:37;5.13;;;2.58;;
77573;SDS011;66710;48.868;9.080;2023-04-25T01:45:07;5.50;;;2.90;;
77573;SDS011;66710;48.868;9.080;2023-04-25T01:47:33;5.90;;;2.88;;
77573;SDS011;66710;48.868;9.080;2023-04-25T01:50:00;5.47;;;2.08;;
77573;SDS011;66710;48.868;9.080;2023-04-25T01:52:26;3.65;;;2.15;;
77573;SDS011;66710;48.868;9.080;2023-04-25T01:54:51;4.15;;;2.38;;
77573;SDS011;66710;48.868;9.080;2023-04-25T01:57:19;5.43;;;2.47;;
77573;SDS011;66710;48.868;9.080;2023-04-25T01:59:44;2.00;;;1.30;;
77573;SDS011;66710;48.868;9.080;2023-04-25T02:02:10;4.97;;;2.30;;
77573;SDS011;66710;48.868;9.080;2023-04-25T02:04:36;3.22;;;1.92;;
77573;SDS011;66710;48.868;9.080;2023-04-25T02:07:01;4.13;;;2.10;;
77573;SDS011;66710;48.868;9.080;2023-04-25T02:09:27;4.55;;;2.05;;
77573;SDS011;66710;48.868;9.080;2023-04-25T02:11:52;4.30;;;2.42;;
77573;SDS011;66710;48.868;9.080;2023-04-25T02:14:18;5.57;;;2.47;;
77573;SDS011;66710;48.868;9.080;2023-04-25T02:16:43;4.75;;;2.50;;
77573;SDS011;66710;48.868;9.080;2023-04-25T02:19:09;4.38;;;1.88;;
77573;SDS011;66710;48.868;9.080;2023-04-25T02:21:35;5.22;;;2.50;;
77573;SDS011;66710;48.868;9.080;2023-04-25T02:24:01;4.30;;;2.42;;
77573;SDS011;66710;48.868;9.080;2023-04-25T02:26:26;4.40;;;2.30;;
77573;SDS011;66710;48.868;9.080;2023-04-25T02:28:52;5.10;;;2.63;;
77573;SDS011;66710;48.868;9.080;2023-04-25T02:31:17;6.30;;;3.25;;
77573;SDS011;66710;48.868;9.080;2023-04-25T02:33:43;5.10;;;2.92;;
77573;SDS011;66710;48.868;9.080;2023-04-25T02:36:09;5.45;;;2.35;;
77573;SDS011;66710;48.868;9.080;2023-04-25T02:38:34;4.28;;;2.75;;
77573;SDS011;66710;48.868;9.080;2023-04-25T02:41:00;5.88;;;2.75;;
77573;SDS011;66710;48.868;9.080;2023-04-25T02:43:25;6.45;;;2.95;;
77573;SDS011;66710;48.868;9.080;2023-04-25T02:45:50;5.68;;;2.97;;
77573;SDS011;66710;48.868;9.080;2023-04-25T02:48:16;5.47;;;2.83;;
77573;SDS011;66710;48.868;9.080;2023-04-25T02:50:41;4.97;;;2.60;;
77573;SDS011;66710;48.868;9.080;2023-04-25T02:53:07;4.45;;;2.40;;
77573;SDS011;66710;48.868;9.080;2023-04-25T02:55:32;4.80;;;2.65;;
77573;SDS011;66710;48.868;9.080;2023-04-25T02:57:58;5.57;;;2.92;;
77573;SDS011;66710;48.868;9.080;2023-04-25T03:00:23;4.85;;;2.78;;
77573;SDS011;66710;48.868;9.080;2023-04-25T03:02:49;4.30;;;2.67;;
77573;SDS011;66710;48.868;9.080;2023-04-25T03:05:14;4.45;;;2.50;;
77573;SDS011;66710;48.868;9.080;2023-04-25T03:07:39;4.68;;;2.42;;
77573;SDS011;66710;48.868;9.080;2023-04-25T03:10:08;4.70;;;2.50;;
77573;SDS011;66710;48.868;9.080;2023-04-25T03:12:33;4.57;;;2.53;;
77573;SDS011;66710;48.868;9.080;2023-04-25T03:14:58;3.30;;;1.85;;
77573;SDS011;66710;48.868;9.080;2023-04-25T03:17:24;4.30;;;2.42;;
77573;SDS011;66710;48.868;9.080;2023-04-25T03:19:49;4.82;;;2.55;;
77573;SDS011;66710;48.868;9.080;2023-04-25T03:22:15;3.08;;;1.83;;
77573;SDS011;66710;48.868;9.080;2023-04-25T03:24:40;3.90;;;2.25;;
77573;SDS011;66710;48.868;9.080;2023-04-25T03:27:05;6.28;;;3.00;;
77573;SDS011;66710;48.868;9.080;2023-04-25T03:29:31;4.57;;;2.72;;
77573;SDS011;66710;48.868;9.080;2023-04-25T03:31:56;4.32;;;2.45;;
77573;SDS011;66710;48.868;9.080;2023-04-25T03:34:21;4.13;;;2.17;;
77573;SDS011;66710;48.868;9.080;2023-04-25T03:36:47;3.67;;;2.03;;
77573;SDS011;66710;48.868;9.080;2023-04-25T03:39:12;4.32;;;2.50;;
77573;SDS011;66710;48.868;9.080;2023-04-25T03:41:38;4.57;;;2.83;;
77573;SDS011;66710;48.868;9.080;2023-04-25T03:44:03;5.88;;;2.90;;
77573;SDS011;66710;48.868;9.080;2023-04-25T03:46:29;5.28;;;2.88;;
77573;SDS011;66710;48.868;9.080;2023-04-25T03:48:54;3.72;;;2.08;;
77573;SDS011;66710;48.868;9.080;2023-04-25T03:51:20;5.30;;;3.15;;
77573;SDS011;66710;48.868;9.080;2023-04-25T03:53:45;3.95;;;2.17;;
77573;SDS011;66710;48.868;9.080;2023-04-25T03:56:11;5.03;;;2.88;;
77573;SDS011;66710;48.868;9.080;2023-04-25T03:58:36;6.03;;;2.83;;
77573;SDS011;66710;48.868;9.080;2023-04-25T04:01:01;5.40;;;2.83;;
77573;SDS011;66710;48.868;9.080;2023-04-25T04:03:32;6.55;;;3.50;;
77573;SDS011;66710;48.868;9.080;2023-04-25T04:06:00;5.53;;;3.03;;
77573;SDS011;66710;48.868;9.080;2023-04-25T04:08:25;5.68;;;4.07;;
77573;SDS011;66710;48.868;9.080;2023-04-25T04:10:50;6.15;;;3.53;;
77573;SDS011;66710;48.868;9.080;2023-04-25T04:13:16;6.53;;;4.22;;
77573;SDS011;66710;48.868;9.080;2023-04-25T04:15:41;6.05;;;3.78;;
77573;SDS011;66710;48.868;9.080;2023-04-25T04:18:07;6.30;;;3.75;;
77573;SDS011;66710;48.868;9.080;2023-04-25T04:20:32;6.47;;;3.95;;
77573;SDS011;66710;48.868;9.080;2023-04-25T04:22:57;6.50;;;2.75;;
77573;SDS011;66710;48.868;9.080;2023-04-25T04:25:23;8.18;;;4.00;;
77573;SDS011;66710;48.868;9.080;2023-04-25T04:27:49;5.72;;;3.40;;
77573;SDS011;66710;48.868;9.080;2023-04-25T04:30:19;8.32;;;3.58;;
77573;SDS011;66710;48.868;9.080;2023-04-25T04:32:46;6.57;;;3.22;;
77573;SDS011;66710;48.868;9.080;2023-04-25T04:35:13;6.65;;;3.67;;
77573;SDS011;66710;48.868;9.080;2023-04-25T04:37:39;6.70;;;3.90;;
77573;SDS011;66710;48.868;9.080;2023-04-25T04:40:04;8.48;;;4.00;;
77573;SDS011;66710;48.868;9.080;2023-04-25T04:42:31;6.40;;;3.53;;
77573;SDS011;66710;48.868;9.080;2023-04-25T04:44:57;4.93;;;2.60;;
77573;SDS011;66710;48.868;9.080;2023-04-25T04:47:23;6.20;;;3.78;;
77573;SDS011;66710;48.868;9.080;2023-04-25T04:49:49;8.18;;;3.50;;
77573;SDS011;66710;48.868;9.080;2023-04-25T04:52:15;4.95;;;2.63;;
77573;SDS011;66710;48.868;9.080;2023-04-25T04:54:40;5.95;;;2.70;;
77573;SDS011;66710;48.868;9.080;2023-04-25T04:57:05;4.22;;;2.22;;
77573;SDS011;66710;48.868;9.080;2023-04-25T04:59:31;5.50;;;3.40;;
77573;SDS011;66710;48.868;9.080;2023-04-25T05:01:56;5.10;;;3.05;;
77573;SDS011;66710;48.868;9.080;2023-04-25T05:04:21;5.30;;;3.00;;
77573;SDS011;66710;48.868;9.080;2023-04-25T05:06:46;5.38;;;3.38;;
77573;SDS011;66710;48.868;9.080;2023-04-25T05:09:12;4.68;;;2.75;;
77573;SDS011;66710;48.868;9.080;2023-04-25T05:11:37;5.65;;;2.63;;
77573;SDS011;66710;48.868;9.080;2023-04-25T05:14:03;9.18;;;3.72;;
77573;SDS011;66710;48.868;9.080;2023-04-25T05:16:28;5.28;;;2.80;;
77573;SDS011;66710;48.868;9.080;2023-04-25T05:18:53;5.20;;;3.10;;
77573;SDS011;66710;48.868;9.080;2023-04-25T05:21:19;8.55;;;3.63;;
77573;SDS011;66710;48.868;9.080;2023-04-25T05:23:44;5.28;;;3.30;;
77573;SDS011;66710;48.868;9.080;2023-04-25T05:26:09;6.97;;;3.65;;
77573;SDS011;66710;48.868;9.080;2023-04-25T05:28:38;5.60;;;3.17;;
77573;SDS011;66710;48.868;9.080;2023-04-25T05:31:07;4.63;;;2.67;;
77573;SDS011;66710;48.868;9.080;2023-04-25T05:33:34;6.50;;;3.72;;
77573;SDS011;66710;48.868;9.080;2023-04-25T05:36:00;6.72;;;3.45;;
77573;SDS011;66710;48.868;9.080;2023-04-25T05:38:25;4.32;;;2.65;;
77573;SDS011;66710;48.868;9.080;2023-04-25T05:40:51;6.32;;;3.55;;
77573;SDS011;66710;48.868;9.080;2023-04-25T05:43:16;6.18;;;3.65;;
77573;SDS011;66710;48.868;9.080;2023-04-25T05:45:41;6.85;;;3.45;;
77573;SDS011;66710;48.868;9.080;2023-04-25T05:48:06;5.72;;;3.40;;
77573;SDS011;66710;48.868;9.080;2023-04-25T05:50:32;5.65;;;3.50;;
77573;SDS011;66710;48.868;9.080;2023-04-25T05:52:57;5.45;;;3.28;;
77573;SDS011;66710;48.868;9.080;2023-04-25T05:55:23;5.55;;;3.33;;
77573;SDS011;66710;48.868;9.080;2023-04-25T05:57:48;5.43;;;3.17;;
77573;SDS011;66710;48.868;9.080;2023-04-25T06:00:13;5.10;;;3.20;;
77573;SDS011;66710;48.868;9.080;2023-04-25T06:02:42;5.43;;;3.40;;
77573;SDS011;66710;48.868;9.080;2023-04-25T06:05:07;5.80;;;2.40;;
77573;SDS011;66710;48.868;9.080;2023-04-25T06:07:33;6.95;;;3.03;;
77573;SDS011;66710;48.868;9.080;2023-04-25T06:09:59;5.65;;;3.45;;
77573;SDS011;66710;48.868;9.080;2023-04-25T06:12:25;5.50;;;3.30;;
77573;SDS011;66710;48.868;9.080;2023-04-25T06:14:51;6.43;;;3.25;;
77573;SDS011;66710;48.868;9.080;2023-04-25T06:17:16;6.72;;;3.60;;
77573;SDS011;66710;48.868;9.080;2023-04-25T06:19:42;5.80;;;3.60;;
77573;SDS011;66710;48.868;9.080;2023-04-25T06:22:07;6.10;;;3.70;;
77573;SDS011;66710;48.868;9.080;2023-04-25T06:24:33;6.35;;;3.70;;
77573;SDS011;66710;48.868;9.080;2023-04-25T06:26:58;7.47;;;3.78;;
77573;SDS011;66710;48.868;9.080;2023-04-25T06:29:24;8.85;;;4.10;;
77573;SDS011;66710;48.868;9.080;2023-04-25T06:31:49;6.03;;;3.50;;
77573;SDS011;66710;48.868;9.080;2023-04-25T06:34:14;5.68;;;3.45;;
77573;SDS011;66710;48.868;9.080;2023-04-25T06:36:40;7.10;;;3.90;;
77573;SDS011;66710;48.868;9.080;2023-04-25T06:39:06;5.30;;;3.30;;
77573;SDS011;66710;48.868;9.080;2023-04-25T06:41:32;7.55;;;3.92;;
77573;SDS011;66710;48.868;9.080;2023-04-25T06:43:57;7.47;;;3.90;;
77573;SDS011;66710;48.868;9.080;2023-04-25T06:46:22;6.40;;;3.22;;
77573;SDS011;66710;48.868;9.080;2023-04-25T06:48:48;5.60;;;3.60;;
77573;SDS011;66710;48.868;9.080;2023-04-25T06:51:13;5.45;;;3.17;;
77573;SDS011;66710;48.868;9.080;2023-04-25T06:53:39;6.97;;;3.63;;
77573;SDS011;66710;48.868;9.080;2023-04-25T06:56:05;5.93;;;3.70;;
77573;SDS011;66710;48.868;9.080;2023-04-25T06:58:30;6.07;;;3.15;;
77573;SDS011;66710;48.868;9.080;2023-04-25T07:00:56;5.72;;;3.20;;
77573;SDS011;66710;48.868;9.080;2023-04-25T07:03:21;5.50;;;3.30;;
77573;SDS011;66710;48.868;9.080;2023-04-25T07:05:47;6.65;;;3.92;;
77573;SDS011;66710;48.868;9.080;2023-04-25T07:08:12;6.18;;;3.95;;
77573;SDS011;66710;48.868;9.080;2023-04-25T07:10:37;5.80;;;3.60;;
77573;SDS011;66710;48.868;9.080;2023-04-25T07:13:03;7.18;;;3.92;;
77573;SDS011;66710;48.868;9.080;2023-04-25T07:15:28;5.30;;;3.67;;
77573;SDS011;66710;48.868;9.080;2023-04-25T07:17:53;5.75;;;3.08;;
77573;SDS011;66710;48.868;9.080;2023-04-25T07:20:19;5.85;;;3.65;;
77573;SDS011;66710;48.868;9.080;2023-04-25T07:22:44;6.40;;;3.65;;
77573;SDS011;66710;48.868;9.080;2023-04-25T07:25:10;6.72;;;4.25;;
77573;SDS011;66710;48.868;9.080;2023-04-25T07:27:35;6.68;;;4.13;;
77573;SDS011;66710;48.868;9.080;2023-04-25T07:30:01;6.63;;;3.97;;
77573;SDS011;66710;48.868;9.080;2023-04-25T07:32:26;6.10;;;4.13;;
77573;SDS011;66710;48.868;9.080;2023-04-25T07:34:52;6.20;;;3.80;;
77573;SDS011;66710;48.868;9.080;2023-04-25T07:37:17;6.40;;;3.75;;
77573;SDS011;66710;48.868;9.080;2023-04-25T07:39:43;7.10;;;4.00;;
77573;SDS011;66710;48.868;9.080;2023-04-25T07:42:11;6.97;;;3.58;;
77573;SDS011;66710;48.868;9.080;2023-04-25T07:44:36;5.75;;;3.45;;
77573;SDS011;66710;48.868;9.080;2023-04-25T07:47:05;5.03;;;3.05;;
77573;SDS011;66710;48.868;9.080;2023-04-25T07:49:34;6.63;;;3.65;;
77573;SDS011;66710;48.868;9.080;2023-04-25T07:52:01;5.55;;;3.38;;
77573;SDS011;66710;48.868;9.080;2023-04-25T07:54:27;5.65;;;3.60;;
77573;SDS011;66710;48.868;9.080;2023-04-25T07:56:53;5.07;;;3.05;;
77573;SDS011;66710;48.868;9.080;2023-04-25T07:59:18;9.07;;;4.03;;
77573;SDS011;66710;48.868;9.080;2023-04-25T08:01:44;6.40;;;3.92;;
77573;SDS011;66710;48.868;9.080;2023-04-25T08:04:09;6.70;;;3.60;;
77573;SDS011;66710;48.868;9.080;2023-04-25T08:06:35;6.68;;;3.45;;
77573;SDS011;66710;48.868;9.080;2023-04-25T08:09:00;6.22;;;3.38;;
77573;SDS011;66710;48.868;9.080;2023-04-25T08:11:26;6.43;;;3.88;;
77573;SDS011;66710;48.868;9.080;2023-04-25T08:13:51;8.80;;;3.95;;
77573;SDS011;66710;48.868;9.080;2023-04-25T08:16:17;8.80;;;4.28;;
77573;SDS011;66710;48.868;9.080;2023-04-25T08:18:42;7.72;;;3.85;;
77573;SDS011;66710;48.868;9.080;2023-04-25T08:21:07;7.25;;;4.05;;
77573;SDS011;66710;48.868;9.080;2023-04-25T08:23:33;6.15;;;3.72;;
77573;SDS011;66710;48.868;9.080;2023-04-25T08:25:59;5.43;;;3.45;;
77573;SDS011;66710;48.868;9.080;2023-04-25T08:28:24;7.45;;;4.20;;
77573;SDS011;66710;48.868;9.080;2023-04-25T08:30:50;9.63;;;4.47;;
77573;SDS011;66710;48.868;9.080;2023-04-25T08:33:15;8.40;;;4.78;;
77573;SDS011;66710;48.868;9.080;2023-04-25T08:35:41;7.35;;;4.13;;
77573;SDS011;66710;48.868;9.080;2023-04-25T08:38:07;7.25;;;4.13;;
77573;SDS011;66710;48.868;9.080;2023-04-25T08:40:32;7.18;;;2.97;;
77573;SDS011;66710;48.868;9.080;2023-04-25T08:43:02;6.30;;;3.45;;
77573;SDS011;66710;48.868;9.080;2023-04-25T08:45:28;6.82;;;4.03;;
77573;SDS011;66710;48.868;9.080;2023-04-25T08:47:56;4.82;;;2.72;;
77573;SDS011;66710;48.868;9.080;2023-04-25T08:50:22;7.75;;;4.38;;
77573;SDS011;66710;48.868;9.080;2023-04-25T08:52:48;7.40;;;4.20;;
77573;SDS011;66710;48.868;9.080;2023-04-25T08:55:17;6.13;;;3.38;;
77573;SDS011;66710;48.868;9.080;2023-04-25T08:57:43;4.97;;;3.05;;
77573;SDS011;66710;48.868;9.080;2023-04-25T09:00:10;6.45;;;3.90;;
77573;SDS011;66710;48.868;9.080;2023-04-25T09:02:37;7.55;;;4.40;;
77573;SDS011;66710;48.868;9.080;2023-04-25T09:05:04;6.75;;;3.83;;
77573;SDS011;66710;48.868;9.080;2023-04-25T09:07:31;6.88;;;3.95;;
77573;SDS011;66710;48.868;9.080;2023-04-25T09:09:56;9.30;;;5.38;;
77573;SDS011;66710;48.868;9.080;2023-04-25T09:12:24;9.35;;;5.38;;
77573;SDS011;66710;48.868;9.080;2023-04-25T09:15:06;7.03;;;4.63;;
77573;SDS011;66710;48.868;9.080;2023-04-25T09:17:32;7.95;;;4.82;;
77573;SDS011;66710;48.868;9.080;2023-04-25T09:20:08;7.93;;;5.00;;
77573;SDS011;66710;48.868;9.080;2023-04-25T09:22:35;8.30;;;4.38;;
77573;SDS011;66710;48.868;9.080;2023-04-25T09:25:19;8.05;;;4.47;;
77573;SDS011;66710;48.868;9.080;2023-04-25T09:27:51;9.10;;;5.32;;
77573;SDS011;66710;48.868;9.080;2023-04-25T09:30:18;8.05;;;5.13;;
77573;SDS011;66710;48.868;9.080;2023-04-25T09:32:44;10.30;;;6.25;;
77573;SDS011;66710;48.868;9.080;2023-04-25T09:35:10;11.10;;;6.57;;
77573;SDS011;66710;48.868;9.080;2023-04-25T09:37:36;9.00;;;5.70;;
77573;SDS011;66710;48.868;9.080;2023-04-25T09:40:04;10.38;;;6.80;;
77573;SDS011;66710;48.868;9.080;2023-04-25T09:42:31;31.77;;;18.63;;
77573;SDS011;66710;48.868;9.080;2023-04-25T09:44:57;11.77;;;7.50;;
77573;SDS011;66710;48.868;9.080;2023-04-25T09:47:23;10.10;;;6.80;;
77573;SDS011;66710;48.868;9.080;2023-04-25T09:49:50;8.80;;;5.47;;
77573;SDS011;66710;48.868;9.080;2023-04-25T09:52:20;8.73;;;5.60;;
77573;SDS011;66710;48.868;9.080;2023-04-25T09:54:47;6.90;;;4.25;;
77573;SDS011;66710;48.868;9.080;2023-04-25T09:57:20;6.35;;;3.70;;
77573;SDS011;66710;48.868;9.080;2023-04-25T09:59:48;6.38;;;3.88;;
77573;SDS011;66710;48.868;9.080;2023-04-25T10:02:16;6.47;;;3.60;;
77573;SDS011;66710;48.868;9.080;2023-04-25T10:04:44;8.82;;;5.88;;
77573;SDS011;66710;48.868;9.080;2023-04-25T10:07:12;7.35;;;4.30;;
77573;SDS011;66710;48.868;9.080;2023-04-25T10:09:38;5.88;;;3.78;;
77573;SDS011;66710;48.868;9.080;2023-04-25T10:12:04;10.63;;;6.45;;
77573;SDS011;66710;48.868;9.080;2023-04-25T10:14:32;10.05;;;5.47;;
77573;SDS011;66710;48.868;9.080;2023-04-25T10:16:58;9.68;;;5.40;;
77573;SDS011;66710;48.868;9.080;2023-04-25T10:19:24;9.27;;;5.65;;
77573;SDS011;66710;48.868;9.080;2023-04-25T10:21:52;11.15;;;6.45;;
77573;SDS011;66710;48.868;9.080;2023-04-25T10:24:23;10.48;;;5.50;;
77573;SDS011;66710;48.868;9.080;2023-04-25T10:26:50;8.80;;;4.90;;
77573;SDS011;66710;48.868;9.080;2023-04-25T10:29:22;8.55;;;5.05;;
77573;SDS011;66710;48.868;9.080;2023-04-25T10:31:49;8.27;;;4.80;;
77573;SDS011;66710;48.868;9.080;2023-04-25T10:34:15;8.05;;;4.68;;
77573;SDS011;66710;48.868;9.080;2023-04-25T10:36:41;8.55;;;4.63;;
77573;SDS011;66710;48.868;9.080;2023-04-25T10:39:07;9.48;;;4.45;;
77573;SDS011;66710;48.868;9.080;2023-04-25T10:41:45;8.00;;;4.43;;
77573;SDS011;66710;48.868;9.080;2023-04-25T10:44:18;6.65;;;3.47;;
77573;SDS011;66710;48.868;9.080;2023-04-25T10:46:44;6.22;;;3.50;;
77573;SDS011;66710;48.868;9.080;2023-04-25T10:49:09;7.30;;;3.75;;
77573;SDS011;66710;48.868;9.080;2023-04-25T10:51:36;7.00;;;4.13;;
77573;SDS011;66710;48.868;9.080;2023-04-25T10:54:02;6.32;;;2.60;;
77573;SDS011;66710;48.868;9.080;2023-04-25T10:56:32;8.02;;;4.10;;
77573;SDS011;66710;48.868;9.080;2023-04-25T11:01:40;6.25;;;3.45;;
77573;SDS011;66710;48.868;9.080;2023-04-25T11:04:21;5.97;;;3.28;;
77573;SDS011;66710;48.868;9.080;2023-04-25T11:06:55;5.82;;;3.20;;
77573;SDS011;66710;48.868;9.080;2023-04-25T11:09:27;6.68;;;3.50;;
77573;SDS011;66710;48.868;9.080;2023-04-25T11:11:56;5.85;;;3.33;;
77573;SDS011;66710;48.868;9.080;2023-04-25T11:14:23;7.97;;;2.85;;
77573;SDS011;66710;48.868;9.080;2023-04-25T11:16:54;6.05;;;3.30;;
77573;SDS011;66710;48.868;9.080;2023-04-25T11:19:21;4.63;;;2.22;;
77573;SDS011;66710;48.868;9.080;2023-04-25T11:21:46;5.28;;;3.08;;
77573;SDS011;66710;48.868;9.080;2023-04-25T11:24:12;4.72;;;2.80;;
77573;SDS011;66710;48.868;9.080;2023-04-25T11:26:37;5.95;;;3.45;;
77573;SDS011;66710;48.868;9.080;2023-04-25T11:29:02;4.90;;;2.58;;
77573;SDS011;66710;48.868;9.080;2023-04-25T11:31:28;4.70;;;2.45;;
77573;SDS011;66710;48.868;9.080;2023-04-25T11:33:54;4.35;;;2.47;;
77573;SDS011;66710;48.868;9.080;2023-04-25T11:36:22;4.38;;;2.55;;
77573;SDS011;66710;48.868;9.080;2023-04-25T11:38:49;5.82;;;3.45;;
77573;SDS011;66710;48.868;9.080;2023-04-25T11:41:15;4.68;;;2.80;;
77573;SDS011;66710;48.868;9.080;2023-04-25T11:43:42;5.78;;;3.42;;
77573;SDS011;66710;48.868;9.080;2023-04-25T11:46:08;6.03;;;3.15;;
77573;SDS011;66710;48.868;9.080;2023-04-25T11:48:37;5.70;;;3.42;;
77573;SDS011;66710;48.868;9.080;2023-04-25T11:51:03;7.00;;;3.63;;
77573;SDS011;66710;48.868;9.080;2023-04-25T11:53:29;7.30;;;3.90;;
77573;SDS011;66710;48.868;9.080;2023-04-25T11:55:54;7.78;;;4.20;;
77573;SDS011;66710;48.868;9.080;2023-04-25T11:58:20;7.20;;;4.22;;
77573;SDS011;66710;48.868;9.080;2023-04-25T12:00:46;7.75;;;3.67;;
77573;SDS011;66710;48.868;9.080;2023-04-25T12:03:11;6.25;;;3.40;;
77573;SDS011;66710;48.868;9.080;2023-04-25T12:05:36;7.25;;;4.15;;
77573;SDS011;66710;48.868;9.080;2023-04-25T12:08:17;7.57;;;4.10;;
77573;SDS011;66710;48.868;9.080;2023-04-25T12:10:43;9.45;;;4.40;;
77573;SDS011;66710;48.868;9.080;2023-04-25T12:15:49;8.10;;;4.68;;
77573;SDS011;66710;48.868;9.080;2023-04-25T12:18:15;9.85;;;4.53;;
77573;SDS011;66710;48.868;9.080;2023-04-25T12:20:44;10.52;;;5.05;;
77573;SDS011;66710;48.868;9.080;2023-04-25T12:23:10;8.10;;;4.20;;
77573;SDS011;66710;48.868;9.080;2023-04-25T12:25:40;7.53;;;4.07;;
77573;SDS011;66710;48.868;9.080;2023-04-25T12:33:21;12.55;;;5.80;;
77573;SDS011;66710;48.868;9.080;2023-04-25T12:35:50;8.07;;;5.07;;
77573;SDS011;66710;48.868;9.080;2023-04-25T12:40:50;7.03;;;3.67;;
77573;SDS011;66710;48.868;9.080;2023-04-25T12:43:16;12.65;;;5.75;;
77573;SDS011;66710;48.868;9.080;2023-04-25T12:45:41;11.93;;;5.63;;
77573;SDS011;66710;48.868;9.080;2023-04-25T12:48:07;7.00;;;4.35;;
77573;SDS011;66710;48.868;9.080;2023-04-25T12:50:32;10.68;;;5.53;;
77573;SDS011;66710;48.868;9.080;2023-04-25T12:52:57;8.98;;;5.20;;
77573;SDS011;66710;48.868;9.080;2023-04-25T12:55:22;11.27;;;4.70;;
77573;SDS011;66710;48.868;9.080;2023-04-25T12:57:48;10.45;;;5.32;;
77573;SDS011;66710;48.868;9.080;2023-04-25T13:00:13;7.47;;;4.43;;
77573;SDS011;66710;48.868;9.080;2023-04-25T13:02:40;7.45;;;3.63;;
77573;SDS011;66710;48.868;9.080;2023-04-25T13:05:05;9.82;;;5.95;;
77573;SDS011;66710;48.868;9.080;2023-04-25T13:07:32;13.25;;;7.22;;
77573;SDS011;66710;48.868;9.080;2023-04-25T13:09:57;11.27;;;6.47;;
77573;SDS011;66710;48.868;9.080;2023-04-25T13:12:22;12.02;;;6.95;;
77573;SDS011;66710;48.868;9.080;2023-04-25T13:14:47;12.38;;;5.50;;
77573;SDS011;66710;48.868;9.080;2023-04-25T13:17:13;10.65;;;5.43;;
77573;SDS011;66710;48.868;9.080;2023-04-25T13:19:38;15.25;;;7.93;;
77573;SDS011;66710;48.868;9.080;2023-04-25T13:22:04;13.25;;;7.70;;
77573;SDS011;66710;48.868;9.080;2023-04-25T13:24:29;12.02;;;7.15;;
77573;SDS011;66710;48.868;9.080;2023-04-25T13:26:54;13.30;;;7.65;;
77573;SDS011;66710;48.868;9.080;2023-04-25T13:29:20;8.95;;;5.68;;
77573;SDS011;66710;48.868;9.080;2023-04-25T13:31:45;12.25;;;6.72;;
77573;SDS011;66710;48.868;9.080;2023-04-25T13:34:11;11.52;;;6.90;;
77573;SDS011;66710;48.868;9.080;2023-04-25T13:36:37;12.00;;;6.78;;
77573;SDS011;66710;48.868;9.080;2023-04-25T13:39:03;13.23;;;7.65;;
77573;SDS011;66710;48.868;9.080;2023-04-25T13:41:29;11.13;;;5.40;;
77573;SDS011;66710;48.868;9.080;2023-04-25T13:43:55;10.43;;;6.25;;
77573;SDS011;66710;48.868;9.080;2023-04-25T13:46:20;13.15;;;6.78;;
77573;SDS011;66710;48.868;9.080;2023-04-25T13:48:46;12.25;;;6.65;;
77573;SDS011;66710;48.868;9.080;2023-04-25T13:51:13;9.75;;;6.72;;
77573;SDS011;66710;48.868;9.080;2023-04-25T13:53:42;11.30;;;6.55;;
77573;SDS011;66710;48.868;9.080;2023-04-25T13:56:08;9.23;;;5.45;;
77573;SDS011;66710;48.868;9.080;2023-04-25T13:58:33;9.98;;;5.47;;
77573;SDS011;66710;48.868;9.080;2023-04-25T14:00:58;8.70;;;5.47;;
77573;SDS011;66710;48.868;9.080;2023-04-25T14:03:23;8.70;;;5.00;;
77573;SDS011;66710;48.868;9.080;2023-04-25T14:05:49;9.65;;;5.78;;
77573;SDS011;66710;48.868;9.080;2023-04-25T14:08:15;8.93;;;5.60;;
77573;SDS011;66710;48.868;9.080;2023-04-25T14:10:40;9.77;;;5.50;;
77573;SDS011;66710;48.868;9.080;2023-04-25T14:13:05;8.07;;;4.43;;
77573;SDS011;66710;48.868;9.080;2023-04-25T14:15:32;8.00;;;4.43;;
77573;SDS011;66710;48.868;9.080;2023-04-25T14:17:57;8.52;;;5.03;;
77573;SDS011;66710;48.868;9.080;2023-04-25T14:20:22;6.57;;;4.32;;
77573;SDS011;66710;48.868;9.080;2023-04-25T14:22:48;8.18;;;4.65;;
77573;SDS011;66710;48.868;9.080;2023-04-25T14:25:14;10.30;;;6.05;;
77573;SDS011;66710;48.868;9.080;2023-04-25T14:27:39;7.95;;;4.70;;
77573;SDS011;66710;48.868;9.080;2023-04-25T14:30:05;10.82;;;5.80;;
77573;SDS011;66710;48.868;9.080;2023-04-25T14:32:31;9.20;;;5.50;;
77573;SDS011;66710;48.868;9.080;2023-04-25T14:34:57;9.38;;;5.72;;
77573;SDS011;66710;48.868;9.080;2023-04-25T14:37:22;6.97;;;4.53;;
77573;SDS011;66710;48.868;9.080;2023-04-25T14:39:47;9.20;;;5.90;;
77573;SDS011;66710;48.868;9.080;2023-04-25T14:42:12;7.43;;;4.63;;
77573;SDS011;66710;48.868;9.080;2023-04-25T14:44:38;10.10;;;5.68;;
77573;SDS011;66710;48.868;9.080;2023-04-25T14:47:03;9.23;;;5.15;;
77573;SDS011;66710;48.868;9.080;2023-04-25T14:49:28;8.38;;;5.30;;
77573;SDS011;66710;48.868;9.080;2023-04-25T14:51:54;9.20;;;4.40;;